sensor_id;sensor_type;location;lat;lon;timestamp;pressure;altitude;pressure_sealevel;temperature;humidity
29461;BME280;16428;47.836;35.106;2023-04-19T00:01:47;100962.00;;;13.60;100.00
29461;BME280;16428;47.836;35.106;2023-04-19T00:04:14;100960.41;;;13.66;100.00
29461;BME280;16428;47.836;35.106;2023-04-19T00:06:42;100960.75;;;13.56;100.00
29461;BME280;16428;47.836;35.106;2023-04-19T00:09:10;100960.81;;;13.63;100.00
29461;BME280;16428;47.836;35.106;2023-04-19T00:11:38;100956.84;;;13.59;100.00
29461;BME280;16428;47.836;35.106;2023-04-19T00:14:05;100960.28;;;13.53;100.00
29461;BME280;16428;47.836;35.106;2023-04-19T00:16:33;100950.50;;;13.52;100.00
29461;BME280;16428;47.836;35.106;2023-04-19T00:19:00;100949.19;;;13.26;100.00
29461;BME280;16428;47.836;35.106;2023-04-19T00:21:28;100939.94;;;13.35;100.00
29461;BME280;16428;47.836;35.106;2023-04-19T00:23:55;100929.88;;;13.29;100.00
29461;BME280;16428;47.836;35.106;2023-04-19T00:26:23;100922.94;;;13.20;100.00
29461;BME280;16428;47.836;35.106;2023-04-19T00:28:50;100914.34;;;13.31;100.00
29461;BME280;16428;47.836;35.106;2023-04-19T00:31:18;100912.69;;;13.30;100.00
29461;BME280;16428;47.836;35.106;2023-04-19T00:33:45;100913.53;;;13.31;100.00
29461;BME280;16428;47.836;35.106;2023-04-19T00:36:13;100920.59;;;13.32;100.00
29461;BME280;16428;47.836;35.106;2023-04-19T00:38:40;100924.88;;;13.41;100.00
29461;BME280;16428;47.836;35.106;2023-04-19T00:41:07;100932.22;;;13.32;100.00
29461;BME280;16428;47.836;35.106;2023-04-19T00:43:35;100927.28;;;13.36;100.00
29461;BME280;16428;47.836;35.106;2023-04-19T00:46:03;100923.09;;;13.33;100.00
29461;BME280;16428;47.836;35.106;2023-04-19T00:48:31;100926.97;;;13.46;100.00
29461;BME280;16428;47.836;35.106;2023-04-19T00:50:58;100932.97;;;13.41;100.00
29461;BME280;16428;47.836;35.106;2023-04-19T00:53:26;100935.91;;;13.46;100.00
29461;BME280;16428;47.836;35.106;2023-04-19T00:55:56;100928.59;;;13.40;100.00
29461;BME280;16428;47.836;35.106;2023-04-19T00:58:25;100927.94;;;13.38;100.00
29461;BME280;16428;47.836;35.106;2023-04-19T01:00:54;100926.97;;;13.46;100.00
29461;BME280;16428;47.836;35.106;2023-04-19T01:03:21;100918.34;;;13.35;100.00
29461;BME280;16428;47.836;35.106;2023-04-19T01:05:49;100912.59;;;13.60;100.00
29461;BME280;16428;47.836;35.106;2023-04-19T01:08:16;100908.03;;;13.60;100.00
29461;BME280;16428;47.836;35.106;2023-04-19T01:10:44;100906.69;;;13.50;100.00
29461;BME280;16428;47.836;35.106;2023-04-19T01:13:11;100904.25;;;13.55;100.00
29461;BME280;16428;47.836;35.106;2023-04-19T01:15:39;100907.53;;;13.50;100.00
29461;BME280;16428;47.836;35.106;2023-04-19T01:18:08;100901.13;;;13.36;100.00
29461;BME280;16428;47.836;35.106;2023-04-19T01:20:35;100899.16;;;13.45;100.00
29461;BME280;16428;47.836;35.106;2023-04-19T01:23:02;100897.03;;;13.41;100.00
29461;BME280;16428;47.836;35.106;2023-04-19T01:25:30;100891.31;;;13.50;100.00
29461;BME280;16428;47.836;35.106;2023-04-19T01:27:57;100884.94;;;13.36;100.00
29461;BME280;16428;47.836;35.106;2023-04-19T01:30:25;100890.03;;;13.46;100.00
29461;BME280;16428;47.836;35.106;2023-04-19T01:32:52;100885.75;;;13.52;100.00
29461;BME280;16428;47.836;35.106;2023-04-19T01:35:20;100889.59;;;13.43;100.00
29461;BME280;16428;47.836;35.106;2023-04-19T01:37:47;100884.94;;;13.36;100.00
29461;BME280;16428;47.836;35.106;2023-04-19T01:40:15;100897.78;;;13.34;100.00
29461;BME280;16428;47.836;35.106;2023-04-19T01:42:43;100902.69;;;13.46;100.00
29461;BME280;16428;47.836;35.106;2023-04-19T01:45:10;100907.56;;;13.35;100.00
29461;BME280;16428;47.836;35.106;2023-04-19T01:47:37;100906.22;;;13.46;100.00
29461;BME280;16428;47.836;35.106;2023-04-19T01:50:05;100907.47;;;13.44;100.00
29461;BME280;16428;47.836;35.106;2023-04-19T01:52:33;100904.22;;;13.33;100.00
29461;BME280;16428;47.836;35.106;2023-04-19T01:55:01;100901.38;;;13.56;100.00
29461;BME280;16428;47.836;35.106;2023-04-19T01:57:28;100907.00;;;13.61;100.00
29461;BME280;16428;47.836;35.106;2023-04-19T01:59:56;100906.41;;;13.45;100.00
29461;BME280;16428;47.836;35.106;2023-04-19T02:02:23;100909.38;;;13.28;100.00
29461;BME280;16428;47.836;35.106;2023-04-19T02:04:51;100901.59;;;13.40;100.00
29461;BME280;16428;47.836;35.106;2023-04-19T02:07:18;100892.28;;;13.43;100.00
29461;BME280;16428;47.836;35.106;2023-04-19T02:09:46;100890.84;;;13.25;100.00
29461;BME280;16428;47.836;35.106;2023-04-19T02:12:13;100884.69;;;13.31;100.00
29461;BME280;16428;47.836;35.106;2023-04-19T02:14:40;100877.88;;;13.35;100.00
29461;BME280;16428;47.836;35.106;2023-04-19T02:17:08;100891.66;;;13.41;100.00
29461;BME280;16428;47.836;35.106;2023-04-19T02:19:35;100894.38;;;13.26;100.00
29461;BME280;16428;47.836;35.106;2023-04-19T02:22:03;100897.78;;;13.34;100.00
29461;BME280;16428;47.836;35.106;2023-04-19T02:24:30;100902.81;;;13.37;100.00
29461;BME280;16428;47.836;35.106;2023-04-19T02:26:59;100900.53;;;13.56;100.00
29461;BME280;16428;47.836;35.106;2023-04-19T02:29:26;100899.97;;;13.46;100.00
29461;BME280;16428;47.836;35.106;2023-04-19T02:31:54;100897.22;;;13.39;100.00
29461;BME280;16428;47.836;35.106;2023-04-19T02:34:21;100897.50;;;13.44;100.00
29461;BME280;16428;47.836;35.106;2023-04-19T02:36:49;100900.50;;;13.34;100.00
29461;BME280;16428;47.836;35.106;2023-04-19T02:39:16;100897.53;;;13.29;100.00
29461;BME280;16428;47.836;35.106;2023-04-19T02:41:44;100890.47;;;13.28;100.00
29461;BME280;16428;47.836;35.106;2023-04-19T02:44:11;100894.16;;;13.42;100.00
29461;BME280;16428;47.836;35.106;2023-04-19T02:46:39;100891.00;;;13.60;100.00
29461;BME280;16428;47.836;35.106;2023-04-19T02:49:07;100886.72;;;13.29;100.00
29461;BME280;16428;47.836;35.106;2023-04-19T02:51:35;100875.38;;;13.34;100.00
29461;BME280;16428;47.836;35.106;2023-04-19T02:54:03;100867.66;;;13.31;100.00
29461;BME280;16428;47.836;35.106;2023-04-19T02:56:30;100864.19;;;13.37;100.00
29461;BME280;16428;47.836;35.106;2023-04-19T02:59:01;100865.03;;;13.37;100.00
29461;BME280;16428;47.836;35.106;2023-04-19T03:01:29;100865.03;;;13.37;100.00
29461;BME280;16428;47.836;35.106;2023-04-19T03:03:57;100863.38;;;13.36;100.00
29461;BME280;16428;47.836;35.106;2023-04-19T03:06:25;100870.66;;;13.21;100.00
29461;BME280;16428;47.836;35.106;2023-04-19T03:08:52;100874.94;;;13.16;100.00
29461;BME280;16428;47.836;35.106;2023-04-19T03:11:20;100877.00;;;13.28;100.00
29461;BME280;16428;47.836;35.106;2023-04-19T03:13:47;100887.78;;;13.28;100.00
29461;BME280;16428;47.836;35.106;2023-04-19T03:16:15;100883.13;;;13.22;100.00
29461;BME280;16428;47.836;35.106;2023-04-19T03:18:43;100877.84;;;13.29;100.00
29461;BME280;16428;47.836;35.106;2023-04-19T03:21:13;100874.91;;;13.30;100.00
29461;BME280;16428;47.836;35.106;2023-04-19T03:23:40;100880.25;;;13.24;100.00
29461;BME280;16428;47.836;35.106;2023-04-19T03:26:08;100884.44;;;13.26;100.00
29461;BME280;16428;47.836;35.106;2023-04-19T03:28:35;100881.97;;;13.31;100.00
29461;BME280;16428;47.836;35.106;2023-04-19T03:31:02;100876.84;;;13.36;99.25
29461;BME280;16428;47.836;35.106;2023-04-19T03:33:30;100884.03;;;13.29;99.44
29461;BME280;16428;47.836;35.106;2023-04-19T03:35:57;100875.75;;;13.31;100.00
29461;BME280;16428;47.836;35.106;2023-04-19T03:38:25;100877.50;;;13.38;98.96
29461;BME280;16428;47.836;35.106;2023-04-19T03:40:52;100877.94;;;13.21;99.92
29461;BME280;16428;47.836;35.106;2023-04-19T03:43:22;100867.28;;;12.98;100.00
29461;BME280;16428;47.836;35.106;2023-04-19T03:45:50;100861.28;;;13.17;99.25
29461;BME280;16428;47.836;35.106;2023-04-19T03:48:18;100858.13;;;13.14;98.46
29461;BME280;16428;47.836;35.106;2023-04-19T03:50:45;100845.56;;;13.06;99.65
29461;BME280;16428;47.836;35.106;2023-04-19T03:53:12;100853.00;;;13.04;99.71
29461;BME280;16428;47.836;35.106;2023-04-19T03:55:40;100841.59;;;12.87;100.00
29461;BME280;16428;47.836;35.106;2023-04-19T03:58:07;100852.63;;;13.07;99.55
29461;BME280;16428;47.836;35.106;2023-04-19T04:00:35;100848.53;;;13.11;99.17
29461;BME280;16428;47.836;35.106;2023-04-19T04:03:03;100851.72;;;13.00;99.72
29461;BME280;16428;47.836;35.106;2023-04-19T04:05:31;100858.59;;;13.17;98.73
29461;BME280;16428;47.836;35.106;2023-04-19T04:07:58;100858.66;;;13.24;98.88
29461;BME280;16428;47.836;35.106;2023-04-19T04:10:26;100853.66;;;13.21;98.13
29461;BME280;16428;47.836;35.106;2023-04-19T04:12:53;100843.38;;;13.31;97.80
29461;BME280;16428;47.836;35.106;2023-04-19T04:15:21;100851.88;;;13.13;98.13
29461;BME280;16428;47.836;35.106;2023-04-19T04:17:49;100844.72;;;13.06;99.79
29461;BME280;16428;47.836;35.106;2023-04-19T04:20:17;100837.66;;;13.19;97.85
29461;BME280;16428;47.836;35.106;2023-04-19T04:22:45;100830.22;;;13.07;97.81
29461;BME280;16428;47.836;35.106;2023-04-19T04:25:13;100833.75;;;13.07;98.19
29461;BME280;16428;47.836;35.106;2023-04-19T04:27:42;100832.44;;;13.18;98.40
29461;BME280;16428;47.836;35.106;2023-04-19T04:30:13;100830.53;;;12.97;98.90
29461;BME280;16428;47.836;35.106;2023-04-19T04:32:41;100817.53;;;12.86;99.50
29461;BME280;16428;47.836;35.106;2023-04-19T04:35:09;100806.50;;;13.02;98.66
29461;BME280;16428;47.836;35.106;2023-04-19T04:37:37;100800.91;;;13.18;98.41
29461;BME280;16428;47.836;35.106;2023-04-19T04:40:05;100812.25;;;13.28;97.90
29461;BME280;16428;47.836;35.106;2023-04-19T04:42:33;100812.38;;;13.42;96.16
29461;BME280;16428;47.836;35.106;2023-04-19T04:45:00;100817.63;;;13.50;95.82
29461;BME280;16428;47.836;35.106;2023-04-19T04:47:32;100805.53;;;13.46;96.41
29461;BME280;16428;47.836;35.106;2023-04-19T04:50:00;100804.41;;;13.55;95.06
29461;BME280;16428;47.836;35.106;2023-04-19T04:52:28;100802.56;;;13.62;94.51
29461;BME280;16428;47.836;35.106;2023-04-19T04:54:56;100809.25;;;13.66;94.31
29461;BME280;16428;47.836;35.106;2023-04-19T04:57:23;100810.19;;;13.80;94.43
29461;BME280;16428;47.836;35.106;2023-04-19T04:59:51;100818.09;;;13.81;93.14
29461;BME280;16428;47.836;35.106;2023-04-19T05:02:18;100815.38;;;14.02;92.81
29461;BME280;16428;47.836;35.106;2023-04-19T05:04:46;100816.75;;;14.20;92.22
29461;BME280;16428;47.836;35.106;2023-04-19T05:07:13;100829.63;;;14.24;92.19
29461;BME280;16428;47.836;35.106;2023-04-19T05:09:41;100823.91;;;14.34;90.17
29461;BME280;16428;47.836;35.106;2023-04-19T05:12:08;100829.94;;;14.36;90.23
29461;BME280;16428;47.836;35.106;2023-04-19T05:14:36;100834.81;;;14.47;89.37
29461;BME280;16428;47.836;35.106;2023-04-19T05:17:03;100830.75;;;14.36;88.95
29461;BME280;16428;47.836;35.106;2023-04-19T05:19:33;100835.66;;;14.48;89.03
29461;BME280;16428;47.836;35.106;2023-04-19T05:22:00;100829.84;;;14.57;88.40
29461;BME280;16428;47.836;35.106;2023-04-19T05:24:27;100819.50;;;14.67;87.08
29461;BME280;16428;47.836;35.106;2023-04-19T05:26:55;100825.16;;;14.72;86.79
29461;BME280;16428;47.836;35.106;2023-04-19T05:29:22;100834.47;;;14.63;88.00
29461;BME280;16428;47.836;35.106;2023-04-19T05:31:50;100832.09;;;14.88;86.82
29461;BME280;16428;47.836;35.106;2023-04-19T05:34:18;100838.50;;;14.81;87.36
29461;BME280;16428;47.836;35.106;2023-04-19T05:36:48;100833.25;;;14.72;87.61
29461;BME280;16428;47.836;35.106;2023-04-19T05:39:15;100844.06;;;14.72;87.16
29461;BME280;16428;47.836;35.106;2023-04-19T05:41:43;100848.00;;;14.70;88.13
29461;BME280;16428;47.836;35.106;2023-04-19T05:44:10;100847.47;;;14.88;87.27
29461;BME280;16428;47.836;35.106;2023-04-19T05:46:38;100859.44;;;14.65;89.07
29461;BME280;16428;47.836;35.106;2023-04-19T05:49:05;100852.19;;;14.66;87.71
29461;BME280;16428;47.836;35.106;2023-04-19T05:51:33;100867.84;;;14.84;87.85
29461;BME280;16428;47.836;35.106;2023-04-19T05:54:00;100870.97;;;14.81;87.78
29461;BME280;16428;47.836;35.106;2023-04-19T05:56:28;100898.97;;;14.66;87.88
29461;BME280;16428;47.836;35.106;2023-04-19T05:58:56;100916.44;;;14.70;87.64
29461;BME280;16428;47.836;35.106;2023-04-19T06:01:23;100920.06;;;14.84;88.11
29461;BME280;16428;47.836;35.106;2023-04-19T06:03:50;100925.59;;;14.69;88.02
29461;BME280;16428;47.836;35.106;2023-04-19T06:06:21;100920.31;;;14.89;86.07
29461;BME280;16428;47.836;35.106;2023-04-19T06:08:49;100915.53;;;14.91;86.71
29461;BME280;16428;47.836;35.106;2023-04-19T06:11:20;100917.78;;;14.88;87.45
29461;BME280;16428;47.836;35.106;2023-04-19T06:14:04;100924.88;;;14.89;86.67
29461;BME280;16428;47.836;35.106;2023-04-19T06:16:33;100905.31;;;14.87;87.97
29461;BME280;16428;47.836;35.106;2023-04-19T06:19:01;100905.75;;;14.90;88.06
29461;BME280;16428;47.836;35.106;2023-04-19T06:21:30;100915.84;;;14.75;88.13
29461;BME280;16428;47.836;35.106;2023-04-19T06:23:57;100920.59;;;14.66;89.63
29461;BME280;16428;47.836;35.106;2023-04-19T06:26:25;100906.97;;;14.88;88.54
29461;BME280;16428;47.836;35.106;2023-04-19T06:28:52;100910.25;;;14.76;88.11
29461;BME280;16428;47.836;35.106;2023-04-19T06:31:20;100921.38;;;14.60;90.45
29461;BME280;16428;47.836;35.106;2023-04-19T06:33:47;100903.56;;;14.72;90.50
29461;BME280;16428;47.836;35.106;2023-04-19T06:36:15;100899.84;;;14.73;97.27
29461;BME280;16428;47.836;35.106;2023-04-19T06:38:42;100890.75;;;14.88;96.73
29461;BME280;16428;47.836;35.106;2023-04-19T06:41:12;100897.31;;;15.13;96.12
29461;BME280;16428;47.836;35.106;2023-04-19T06:43:40;100893.81;;;15.19;95.84
29461;BME280;16428;47.836;35.106;2023-04-19T06:46:09;100892.56;;;15.28;97.61
29461;BME280;16428;47.836;35.106;2023-04-19T06:48:36;100904.16;;;15.57;95.38
29461;BME280;16428;47.836;35.106;2023-04-19T06:51:04;100898.13;;;15.68;92.97
29461;BME280;16428;47.836;35.106;2023-04-19T06:53:33;100897.34;;;15.87;93.62
29461;BME280;16428;47.836;35.106;2023-04-19T06:56:02;100901.06;;;16.06;89.67
29461;BME280;16428;47.836;35.106;2023-04-19T06:58:32;100902.75;;;16.33;88.08
29461;BME280;16428;47.836;35.106;2023-04-19T07:01:03;100899.78;;;16.35;86.04
29461;BME280;16428;47.836;35.106;2023-04-19T07:03:31;100905.22;;;16.35;85.41
29461;BME280;16428;47.836;35.106;2023-04-19T07:05:59;100900.88;;;16.27;84.00
29461;BME280;16428;47.836;35.106;2023-04-19T07:08:27;100902.31;;;16.23;84.40
29461;BME280;16428;47.836;35.106;2023-04-19T07:11:14;100898.34;;;16.45;84.96
29461;BME280;16428;47.836;35.106;2023-04-19T07:13:41;100892.00;;;16.91;82.08
29461;BME280;16428;47.836;35.106;2023-04-19T07:16:09;100888.88;;;16.87;80.46
29461;BME280;16428;47.836;35.106;2023-04-19T07:18:37;100874.69;;;16.92;79.67
29461;BME280;16428;47.836;35.106;2023-04-19T07:21:04;100853.38;;;16.96;80.67
29461;BME280;16428;47.836;35.106;2023-04-19T07:23:32;100856.25;;;17.01;79.44
29461;BME280;16428;47.836;35.106;2023-04-19T07:25:59;100852.47;;;17.08;79.46
29461;BME280;16428;47.836;35.106;2023-04-19T07:28:30;100848.50;;;17.11;77.31
29461;BME280;16428;47.836;35.106;2023-04-19T07:30:58;100843.09;;;17.11;78.42
29461;BME280;16428;47.836;35.106;2023-04-19T07:33:27;100844.28;;;17.15;77.95
29461;BME280;16428;47.836;35.106;2023-04-19T07:35:54;100834.19;;;16.91;76.93
29461;BME280;16428;47.836;35.106;2023-04-19T07:38:23;100844.91;;;17.17;75.29
29461;BME280;16428;47.836;35.106;2023-04-19T07:40:51;100837.38;;;17.19;74.96
29461;BME280;16428;47.836;35.106;2023-04-19T07:43:19;100836.72;;;16.85;77.72
29461;BME280;16428;47.836;35.106;2023-04-19T07:45:47;100839.34;;;16.99;75.31
29461;BME280;16428;47.836;35.106;2023-04-19T07:48:14;100841.63;;;17.08;75.29
29461;BME280;16428;47.836;35.106;2023-04-19T07:50:42;100837.41;;;17.50;75.10
29461;BME280;16428;47.836;35.106;2023-04-19T07:53:09;100839.41;;;17.62;74.00
29461;BME280;16428;47.836;35.106;2023-04-19T07:55:37;100841.34;;;17.86;73.61
29461;BME280;16428;47.836;35.106;2023-04-19T07:58:04;100844.09;;;18.29;72.28
29461;BME280;16428;47.836;35.106;2023-04-19T08:00:32;100852.25;;;18.29;76.04
29461;BME280;16428;47.836;35.106;2023-04-19T08:03:03;100856.50;;;18.43;67.83
29461;BME280;16428;47.836;35.106;2023-04-19T08:05:30;100846.59;;;18.31;68.71
29461;BME280;16428;47.836;35.106;2023-04-19T08:07:58;100855.94;;;18.16;67.58
29461;BME280;16428;47.836;35.106;2023-04-19T08:10:25;100849.84;;;17.96;69.79
29461;BME280;16428;47.836;35.106;2023-04-19T08:12:54;100841.84;;;18.01;69.60
29461;BME280;16428;47.836;35.106;2023-04-19T08:15:33;100845.00;;;17.73;69.82
29461;BME280;16428;47.836;35.106;2023-04-19T08:18:04;100836.00;;;17.73;72.05
29461;BME280;16428;47.836;35.106;2023-04-19T08:20:32;100836.53;;;17.56;73.74
29461;BME280;16428;47.836;35.106;2023-04-19T08:23:00;100833.22;;;18.04;71.18
29461;BME280;16428;47.836;35.106;2023-04-19T08:25:40;100832.06;;;18.18;69.73
29461;BME280;16428;47.836;35.106;2023-04-19T08:28:08;100827.41;;;18.25;66.73
29461;BME280;16428;47.836;35.106;2023-04-19T08:30:35;100835.19;;;18.40;67.25
29461;BME280;16428;47.836;35.106;2023-04-19T08:33:03;100837.25;;;18.81;66.06
29461;BME280;16428;47.836;35.106;2023-04-19T08:35:30;100829.44;;;18.30;66.90
29461;BME280;16428;47.836;35.106;2023-04-19T08:37:58;100831.94;;;18.50;67.14
29461;BME280;16428;47.836;35.106;2023-04-19T08:40:25;100826.28;;;18.51;68.14
29461;BME280;16428;47.836;35.106;2023-04-19T08:42:53;100822.53;;;18.71;66.71
29461;BME280;16428;47.836;35.106;2023-04-19T08:45:23;100833.19;;;18.72;66.61
29461;BME280;16428;47.836;35.106;2023-04-19T08:47:56;100835.09;;;19.20;65.29
29461;BME280;16428;47.836;35.106;2023-04-19T08:50:29;100830.28;;;19.33;64.67
29461;BME280;16428;47.836;35.106;2023-04-19T08:53:08;100817.06;;;19.49;63.08
29461;BME280;16428;47.836;35.106;2023-04-19T08:55:40;100825.94;;;19.44;61.36
29461;BME280;16428;47.836;35.106;2023-04-19T08:58:30;100832.66;;;19.72;59.81
29461;BME280;16428;47.836;35.106;2023-04-19T09:01:19;100832.63;;;19.60;61.86
29461;BME280;16428;47.836;35.106;2023-04-19T09:03:50;100836.66;;;19.57;61.57
29461;BME280;16428;47.836;35.106;2023-04-19T09:06:39;100834.31;;;19.73;59.07
29461;BME280;16428;47.836;35.106;2023-04-19T09:09:24;100827.59;;;19.45;60.75
29461;BME280;16428;47.836;35.106;2023-04-19T09:11:54;100829.66;;;19.20;61.23
29461;BME280;16428;47.836;35.106;2023-04-19T09:14:26;100833.41;;;19.49;60.57
29461;BME280;16428;47.836;35.106;2023-04-19T09:16:53;100820.25;;;19.16;62.19
29461;BME280;16428;47.836;35.106;2023-04-19T09:19:47;100830.09;;;19.47;60.69
29461;BME280;16428;47.836;35.106;2023-04-19T09:22:16;100831.09;;;19.52;60.71
29461;BME280;16428;47.836;35.106;2023-04-19T09:24:44;100817.97;;;19.43;61.42
29461;BME280;16428;47.836;35.106;2023-04-19T09:27:34;100824.00;;;19.33;61.59
29461;BME280;16428;47.836;35.106;2023-04-19T09:30:04;100830.16;;;19.40;63.47
29461;BME280;16428;47.836;35.106;2023-04-19T09:32:45;100829.72;;;19.43;60.93
29461;BME280;16428;47.836;35.106;2023-04-19T09:35:14;100836.22;;;19.42;60.59
29461;BME280;16428;47.836;35.106;2023-04-19T09:37:41;100842.19;;;18.91;61.52
29461;BME280;16428;47.836;35.106;2023-04-19T09:40:22;100848.41;;;18.61;63.10
29461;BME280;16428;47.836;35.106;2023-04-19T09:42:50;100846.47;;;18.80;63.23
29461;BME280;16428;47.836;35.106;2023-04-19T09:45:20;100844.03;;;18.54;64.04
29461;BME280;16428;47.836;35.106;2023-04-19T09:48:05;100850.50;;;18.16;65.69
29461;BME280;16428;47.836;35.106;2023-04-19T09:50:50;100850.31;;;18.11;65.20
29461;BME280;16428;47.836;35.106;2023-04-19T09:53:28;100846.88;;;18.22;65.35
29461;BME280;16428;47.836;35.106;2023-04-19T09:55:56;100852.88;;;18.31;65.38
29461;BME280;16428;47.836;35.106;2023-04-19T09:58:29;100841.00;;;18.25;67.36
29461;BME280;16428;47.836;35.106;2023-04-19T10:01:17;100847.38;;;18.56;66.58
29461;BME280;16428;47.836;35.106;2023-04-19T10:03:47;100849.97;;;18.87;65.08
29461;BME280;16428;47.836;35.106;2023-04-19T10:06:17;100854.16;;;18.47;65.76
29461;BME280;16428;47.836;35.106;2023-04-19T10:08:49;100854.66;;;18.62;65.79
29461;BME280;16428;47.836;35.106;2023-04-19T10:11:20;100847.44;;;19.04;63.90
29461;BME280;16428;47.836;35.106;2023-04-19T10:13:55;100860.63;;;19.07;61.26
29461;BME280;16428;47.836;35.106;2023-04-19T10:16:23;100860.25;;;18.85;62.51
29461;BME280;16428;47.836;35.106;2023-04-19T10:18:53;100867.91;;;18.52;64.08
29461;BME280;16428;47.836;35.106;2023-04-19T10:21:21;100871.00;;;18.37;64.75
29461;BME280;16428;47.836;35.106;2023-04-19T10:23:49;100864.69;;;18.18;67.60
29461;BME280;16428;47.836;35.106;2023-04-19T10:26:17;100853.13;;;18.48;66.58
29461;BME280;16428;47.836;35.106;2023-04-19T10:28:44;100858.56;;;18.48;64.38
29461;BME280;16428;47.836;35.106;2023-04-19T10:31:13;100869.53;;;18.35;64.76
29461;BME280;16428;47.836;35.106;2023-04-19T10:33:41;100879.97;;;18.38;64.31
29461;BME280;16428;47.836;35.106;2023-04-19T10:36:10;100873.78;;;18.31;65.98
29461;BME280;16428;47.836;35.106;2023-04-19T10:38:41;100877.44;;;17.93;66.36
29461;BME280;16428;47.836;35.106;2023-04-19T10:41:18;100874.38;;;17.51;68.58
29461;BME280;16428;47.836;35.106;2023-04-19T10:48:55;100871.84;;;17.56;69.02
29461;BME280;16428;47.836;35.106;2023-04-19T10:53:59;100889.78;;;17.57;69.07
29461;BME280;16428;47.836;35.106;2023-04-19T11:01:38;100878.38;;;17.11;70.03
29461;BME280;16428;47.836;35.106;2023-04-19T11:04:22;100877.97;;;17.01;71.84
29461;BME280;16428;47.836;35.106;2023-04-19T11:09:35;100880.00;;;17.12;72.19
29461;BME280;16428;47.836;35.106;2023-04-19T11:12:10;100880.94;;;16.93;73.84
29461;BME280;16428;47.836;35.106;2023-04-19T11:14:43;100876.00;;;16.70;78.02
29461;BME280;16428;47.836;35.106;2023-04-19T11:17:21;100881.41;;;16.76;81.37
29461;BME280;16428;47.836;35.106;2023-04-19T11:22:34;100874.56;;;16.47;87.51
29461;BME280;16428;47.836;35.106;2023-04-19T11:27:40;100872.94;;;16.13;98.19
29461;BME280;16428;47.836;35.106;2023-04-19T11:30:11;100871.28;;;15.86;97.46
29461;BME280;16428;47.836;35.106;2023-04-19T11:32:47;100876.25;;;15.89;96.91
29461;BME280;16428;47.836;35.106;2023-04-19T11:35:19;100880.22;;;15.67;95.77
29461;BME280;16428;47.836;35.106;2023-04-19T11:37:47;100870.13;;;15.47;99.39
29461;BME280;16428;47.836;35.106;2023-04-19T11:40:16;100869.78;;;15.64;100.00
29461;BME280;16428;47.836;35.106;2023-04-19T11:42:45;100879.16;;;15.74;99.22
29461;BME280;16428;47.836;35.106;2023-04-19T11:45:27;100867.31;;;15.82;97.83
29461;BME280;16428;47.836;35.106;2023-04-19T11:48:01;100876.06;;;15.97;98.83
29461;BME280;16428;47.836;35.106;2023-04-19T11:53:20;100875.84;;;15.79;100.00
29461;BME280;16428;47.836;35.106;2023-04-19T11:55:53;100870.66;;;15.84;99.75
29461;BME280;16428;47.836;35.106;2023-04-19T11:58:40;100881.47;;;15.71;99.51
29461;BME280;16428;47.836;35.106;2023-04-19T12:01:12;100877.16;;;15.29;97.83
29461;BME280;16428;47.836;35.106;2023-04-19T12:03:43;100876.59;;;15.46;99.25
29461;BME280;16428;47.836;35.106;2023-04-19T12:06:14;100875.97;;;15.44;100.00
29461;BME280;16428;47.836;35.106;2023-04-19T12:11:10;100869.09;;;15.42;100.00
29461;BME280;16428;47.836;35.106;2023-04-19T12:13:37;100867.97;;;14.62;100.00
29461;BME280;16428;47.836;35.106;2023-04-19T12:16:07;100864.69;;;14.73;100.00
29461;BME280;16428;47.836;35.106;2023-04-19T12:18:49;100872.34;;;14.63;100.00
29461;BME280;16428;47.836;35.106;2023-04-19T12:21:27;100876.13;;;14.75;100.00
29461;BME280;16428;47.836;35.106;2023-04-19T12:23:56;100868.81;;;14.69;100.00
29461;BME280;16428;47.836;35.106;2023-04-19T12:26:26;100862.69;;;14.54;100.00
29461;BME280;16428;47.836;35.106;2023-04-19T12:28:55;100861.03;;;14.53;100.00
29461;BME280;16428;47.836;35.106;2023-04-19T12:31:23;100857.22;;;14.75;100.00
29461;BME280;16428;47.836;35.106;2023-04-19T12:33:51;100867.31;;;14.60;100.00
29461;BME280;16428;47.836;35.106;2023-04-19T12:36:18;100874.41;;;14.68;100.00
29461;BME280;16428;47.836;35.106;2023-04-19T12:38:47;100868.28;;;14.87;100.00
29461;BME280;16428;47.836;35.106;2023-04-19T12:41:14;100861.19;;;14.86;100.00
29461;BME280;16428;47.836;35.106;2023-04-19T12:43:42;100861.84;;;14.88;100.00
29461;BME280;16428;47.836;35.106;2023-04-19T12:46:09;100866.34;;;15.22;100.00
29461;BME280;16428;47.836;35.106;2023-04-19T12:48:37;100867.84;;;14.84;100.00
29461;BME280;16428;47.836;35.106;2023-04-19T12:51:04;100868.66;;;14.77;100.00
29461;BME280;16428;47.836;35.106;2023-04-19T12:53:32;100879.47;;;14.77;100.00
29461;BME280;16428;47.836;35.106;2023-04-19T12:55:59;100867.88;;;14.90;100.00
29461;BME280;16428;47.836;35.106;2023-04-19T12:58:27;100871.41;;;14.50;100.00
29461;BME280;16428;47.836;35.106;2023-04-19T13:00:54;100864.22;;;14.63;100.00
29461;BME280;16428;47.836;35.106;2023-04-19T13:03:21;100866.75;;;14.71;100.00
29461;BME280;16428;47.836;35.106;2023-04-19T13:05:49;100867.75;;;14.64;100.00
29461;BME280;16428;47.836;35.106;2023-04-19T13:08:17;100863.41;;;14.69;100.00
29461;BME280;16428;47.836;35.106;2023-04-19T13:11:03;100862.63;;;14.41;100.00
29461;BME280;16428;47.836;35.106;2023-04-19T13:13:31;100861.50;;;14.63;100.00